x

West Lake Ontario - Grimsby (45139) Wave Buoy

6:00am - Tue 26th May 2015 All times are CDT. -5 hours from GMT.

  • Sig Wave height 0.7ft
  • Peak Period 2s
  • Wind
    9mph, 11mph gusts
  • Sea Temp 41°f
  • Air Temp 58°f
  • Sea Pressure 1018.3mb
  • West Lake Ontario - Grimsby
  • West Lake Ontario - Grimsby

More Historic Weather Station data

Upgrade to MSW Pro to gain access to the past 30 days of data for over 8000 Wavebouys and Weather Stations around the globe.

Join Pro

Comparision Forecast

View Surf forecast
   
Tue 05/26 6:00am 0.7ft 2s 9 11 mph 1018.3mb 41f 58f
5:00am 0.3ft 2s 13 16 mph 1017.4mb 41f 61f
4:00am 0.3ft 2s 9 11 mph 1017.1mb 41f 58f
3:00am 0.7ft 2s 11 13 mph 1016.7mb 41f 62f
2:00am 1ft 3s 11 13 mph 1016.2mb 41f 61f
1:00am 1.3ft 3s 13 18 mph 1016mb 41f 63f
12:00am 1.3ft 3s 18 20 mph 1015.2mb 42f 64f
Mon 05/25 11:00pm 1.3ft 3s 20 25 mph 1014.7mb 42f 65f
10:00pm 1ft 3s 18 22 mph 1014.4mb 42f 65f
9:00pm 1ft 3s 16 20 mph 1014.3mb 41f 64f
8:00pm 1.3ft 3s 16 20 mph 1014.1mb 42f 66f
7:00pm 1.3ft 3s 16 20 mph 1013.9mb 42f 65f
6:00pm 1.3ft 3s 18 22 mph 1013.6mb 42f 67f
5:00pm 1.3ft 3s 16 25 mph 1013.8mb 42f 68f
4:00pm 1.6ft 3s 16 20 mph 1014.2mb 42f 68f
3:00pm 1.6ft 3s 22 27 mph 1014.1mb 42f 69f
2:00pm 1.3ft 3s 20 25 mph 1014.6mb 42f 68f
1:00pm 1ft 2s 18 20 mph 1015mb 42f 68f
12:00pm 1ft 2s 13 18 mph 1015.5mb 42f 65f
11:00am 0.3ft 2s 13 20 mph 1016.3mb 43f 65f
10:00am 0.3ft 2s 4 7 mph 1017.2mb 43f 45f
9:00am  -  2s 2 4 mph 1018mb 43f 45f
8:00am  -  4s 4
mph
1018.8mb 42f 45f
7:00am  -  4s  -  4 mph 1019.2mb 42f 50f
6:00am 0.3ft 4s 2 4 mph 1019.4mb 41f 48f
5:00am  -  4s 9 11 mph 1019.1mb 41f 46f
4:00am 0.3ft 2s 9
mph
1019.2mb 42f 46f
3:00am  -  3s 7
mph
1019.2mb 42f 49f
2:00am  -  2s 7 9 mph 1019.7mb 42f 50f
1:00am  -  4s 4 7 mph 1020.1mb 42f 59f
12:00am  -  2s 4 7 mph 1020.3mb 42f 63f
Sun 05/24 11:00pm  -  4s 4 7 mph 1020mb 42f 63f
10:00pm 0.3ft 4s 7 9 mph 1020.4mb 42f 65f
9:00pm 0.3ft 2s 11
mph
1020.5mb 42f 65f
8:00pm 0.3ft 2s 9 11 mph 1020.3mb 42f 69f
7:00pm 0.7ft 2s 11
mph
1020.4mb 42f 64f
6:00pm 0.7ft 3s 11 13 mph 1020.5mb 42f 65f
5:00pm 0.7ft 2s 13 16 mph 1020.4mb 42f 64f
4:00pm 0.3ft 2s 11 16 mph 1020.4mb 43f 65f
3:00pm 0.3ft 2s 4 7 mph 1020.9mb 45f 72f
2:00pm 0.3ft 6s 11
mph
1021.3mb 48f 68f
1:00pm 0.3ft 2s 2
mph
1022.1mb 50f 70f
12:00pm  -  3s  -  2 mph 1023mb 46f 64f
11:00am  -  5s 4 7 mph 1023.5mb 44f 63f
10:00am 0.3ft 2s 7
mph
1023.7mb 44f 55f
9:00am 0.3ft 2s 7 9 mph 1024.3mb 42f 51f
8:00am 0.3ft 2s 2 4 mph 1024.6mb 41f 54f
7:00am 0.3ft 2s 7 9 mph 1025.1mb 41f 51f
6:00am 0.3ft 2s 9
mph
1025.5mb 41f 49f
5:00am 0.3ft 2s 9
mph
1024.9mb 41f 48f
4:00am 0.3ft 2s 9 11 mph 1024.2mb 41f 47f
3:00am 0.3ft 2s 13 16 mph 1024mb 41f 51f
2:00am 0.7ft 2s 9 13 mph 1024.3mb 41f 52f
1:00am 0.7ft 2s 11 13 mph 1024.5mb 41f 53f
12:00am 0.7ft 2s 9
mph
1024.6mb 41f 53f
Sat 05/23 11:00pm 0.7ft 2s 9 11 mph 1024.9mb 41f 52f
10:00pm 0.7ft 2s 7 9 mph 1024.8mb 41f 52f
9:00pm 0.7ft 2s 7 11 mph 1025.1mb 41f 55f
8:00pm 0.7ft 2s 9 11 mph 1024.9mb 41f 55f
7:00pm 0.7ft 2s 11 13 mph 1024.8mb 42f 57f
6:00pm 1ft 2s 16 20 mph 1024.6mb 42f 59f
5:00pm 1ft 2s 18
mph
1024.8mb 42f 60f
4:00pm 0.7ft 2s 16 20 mph 1025.7mb 42f 59f
3:00pm 0.7ft 2s 11 13 mph 1026.4mb 42f 58f
2:00pm 0.7ft 2s 11 13 mph 1027.4mb 43f 57f
1:00pm 0.3ft 2s 9 13 mph 1028mb 44f 56f
12:00pm 0.3ft 2s 4 7 mph 1028.8mb 44f 51f
11:00am 0.3ft 2s 4 7 mph 1029.3mb 43f 51f
10:00am 0.3ft 2s 4
mph
1030.2mb 43f 49f
9:00am 0.3ft 2s 2 4 mph 1030.8mb 41f 50f
8:00am 0.3ft 2s 7 9 mph 1030.9mb 41f 47f
7:00am 0.3ft 4s 2 4 mph 1030.8mb 41f 44f
6:00am 0.3ft 4s 7
mph
1030mb 40f 43f
5:00am 0.3ft 4s 4
mph
1029.1mb 40f 42f
4:00am 0.3ft 2s 4 7 mph 1028.8mb 40f 42f
3:00am 0.3ft 3s 11 13 mph 1028.6mb 40f 42f
2:00am 0.7ft 3s 7 9 mph 1028.3mb 40f 43f
1:00am 0.7ft 3s 4
mph
1027.9mb 40f 44f
12:00am 1ft 3s  -  mph 1027.5mb 40f 42f
Fri 05/22 11:00pm 1ft 4s 4
mph
1027.1mb 40f 42f
10:00pm 1ft 3s 7
mph
1027mb 40f 43f
9:00pm 1ft 3s 11
mph
1026.6mb 40f 44f
8:00pm 1.3ft 3s 9 11 mph 1025.4mb 40f 47f
7:00pm 1.6ft 3s 11 13 mph 1024.2mb 41f 47f
6:00pm 1.6ft 3s 13 18 mph 1023.4mb 41f 49f
5:00pm 2ft 3s 13 18 mph 1022.6mb 41f 49f
4:00pm 1.6ft 3s 16 18 mph 1021.8mb 41f 49f
3:00pm 1ft 2s 13 18 mph 1020.9mb 42f 49f
2:00pm  -  2s 11 16 mph 1019.9mb 45f 50f
1:00pm  -  2s 2 4 mph 1019.3mb 45f 52f